logo
Rechercher aéroport 
image banner adimage banner adimage banner ad
image banner ad

CA320 - Pointed Mountain (Cbj6)

Situé à , Canada

ICAO - , IATA -

Données fournies par Airmate  

Information générale

Coordonnées: N60°20'0" W123°49'60"
Élévation : feet MSL.
 
Voir autres Aéroports à Northwest Territories

Données opérationnelles

Special qualification required
Heure actuelle UTC:
Heure actuelle locale:
Météo à : CYJF - Fort Liard ( 23 km )
METAR: CYJF 242100Z 25003KT 210V320 15SM FEW130 FEW180 OVC220 M18/M21 A3017 RMK AC1AC2CI8 AC TR SLP241
Voir NOTAMs / SUP AIP / TFR affectant cet aéroport [VIEW]
Fréquences de communication: [VIEW]

Pistes:

Coordonnées de l'aéroport

Adresse: Canada

Vue satellite de CA320